createdAt,value
2023-02-24T07:59:38.368Z,14.60
2023-02-24T08:02:08.057Z,12.40
2023-02-24T08:04:39.950Z,13.50
2023-02-24T08:07:14.466Z,11.90
2023-02-24T08:09:45.958Z,12.70
2023-02-24T08:12:18.191Z,11.40
2023-02-24T08:14:51.519Z,12.20
2023-02-24T08:17:22.008Z,12.30
2023-02-24T08:20:12.189Z,12.90
2023-02-24T08:22:44.420Z,12.90
2023-02-24T08:25:18.867Z,12.30
2023-02-24T08:28:07.938Z,11.40
2023-02-24T08:30:46.107Z,11.70
2023-02-24T08:33:21.088Z,12.00
2023-02-24T08:36:01.264Z,12.40
2023-02-24T08:38:42.167Z,11.40
2023-02-24T08:41:21.391Z,12.90
2023-02-24T08:43:50.301Z,12.90
2023-02-24T08:46:26.864Z,13.60
2023-02-24T08:49:00.749Z,13.00
2023-02-24T08:51:43.939Z,13.80
2023-02-24T08:54:15.853Z,13.40
2023-02-24T08:56:50.032Z,13.20
2023-02-24T08:59:37.901Z,14.50
2023-02-24T09:02:18.952Z,14.60
2023-02-24T09:04:52.489Z,18.50
2023-02-24T09:07:27.076Z,15.90
2023-02-24T09:09:56.558Z,14.40
2023-02-24T09:12:29.299Z,14.20
2023-02-24T09:15:07.582Z,12.10
2023-02-24T09:17:45.126Z,13.60
2023-02-24T09:20:33.261Z,14.10
2023-02-24T09:23:03.993Z,14.90
2023-02-24T09:25:49.687Z,12.70
2023-02-24T09:28:20.451Z,13.80
2023-02-24T09:30:58.863Z,13.00
2023-02-24T09:33:39.858Z,14.80
2023-02-24T09:36:13.213Z,12.70
2023-02-24T09:39:03.789Z,13.90
2023-02-24T09:41:57.148Z,12.50
2023-02-24T09:44:34.736Z,13.10
2023-02-24T09:47:54.724Z,13.80
2023-02-24T09:50:59.063Z,13.40
2023-02-24T09:53:18.860Z,13.40
2023-02-24T09:56:04.017Z,11.90
2023-02-24T09:59:10.429Z,13.10
2023-02-24T10:01:46.477Z,13.30
2023-02-24T10:04:36.126Z,14.30
2023-02-24T10:07:12.972Z,13.80
2023-02-24T10:09:47.063Z,13.70
2023-02-24T10:12:24.162Z,13.30
2023-02-24T10:15:18.707Z,12.90
2023-02-24T10:17:56.765Z,13.80
2023-02-24T10:20:39.935Z,13.70
2023-02-24T10:23:36.486Z,14.60
2023-02-24T10:27:00.868Z,14.10
2023-02-24T10:29:35.751Z,13.90
2023-02-24T10:32:24.055Z,14.80
2023-02-24T10:34:53.499Z,14.80
2023-02-24T10:37:29.002Z,15.50
2023-02-24T10:40:09.876Z,15.50
2023-02-24T10:42:48.767Z,14.00
2023-02-24T10:45:24.473Z,14.40
2023-02-24T10:47:57.421Z,15.00
2023-02-24T10:50:34.772Z,14.60
2023-02-24T10:53:34.810Z,16.30
2023-02-24T10:56:27.222Z,15.60
2023-02-24T10:59:25.666Z,14.90
2023-02-24T11:01:59.906Z,15.30
2023-02-24T11:04:44.304Z,16.80
2023-02-24T11:07:24.699Z,16.30
2023-02-24T11:10:13.644Z,16.20
2023-02-24T11:13:10.081Z,15.60
2023-02-24T11:16:04.993Z,15.40
2023-02-24T11:18:33.525Z,16.90
2023-02-24T11:21:07.706Z,17.10
2023-02-24T11:23:47.268Z,17.40
2023-02-24T11:26:26.569Z,17.40
2023-02-24T11:29:13.403Z,19.30
2023-02-24T11:32:09.123Z,18.80
2023-02-24T11:34:49.716Z,18.40
2023-02-24T11:37:40.688Z,19.10
2023-02-24T11:40:29.620Z,21.60
2023-02-24T11:43:19.057Z,20.70
2023-02-24T11:45:54.384Z,18.80
2023-02-24T11:48:32.248Z,18.90
2023-02-24T11:51:03.789Z,19.00
2023-02-24T11:53:44.508Z,16.40
2023-02-24T11:56:20.918Z,18.20
2023-02-24T11:59:06.763Z,18.00
2023-02-24T12:01:57.129Z,17.70
2023-02-24T12:04:34.012Z,18.50
2023-02-24T12:07:21.952Z,19.70
2023-02-24T12:10:14.188Z,18.00
2023-02-24T12:12:51.343Z,17.80
2023-02-24T12:15:41.606Z,18.00
2023-02-24T12:18:25.528Z,18.70
2023-02-24T12:23:43.090Z,18.40
2023-02-24T12:26:32.177Z,18.40
2023-02-24T12:29:42.548Z,20.00
2023-02-24T12:32:30.426Z,19.50
2023-02-24T12:35:22.899Z,18.40
2023-02-24T12:38:03.597Z,19.40
2023-02-24T12:40:47.709Z,20.00
2023-02-24T12:43:35.489Z,18.40
2023-02-24T12:46:05.199Z,18.50
2023-02-24T12:49:05.437Z,18.30
2023-02-24T12:51:51.950Z,18.30
2023-02-24T12:54:28.042Z,20.70
2023-02-24T12:57:20.136Z,23.40
2023-02-24T12:59:49.246Z,22.00
2023-02-24T13:02:31.367Z,24.80
2023-02-24T13:05:13.532Z,21.20
2023-02-24T13:08:05.939Z,21.70
2023-02-24T13:10:50.074Z,20.80
2023-02-24T13:13:33.661Z,23.90
2023-02-24T13:16:01.898Z,21.60
2023-02-24T13:18:35.837Z,19.80
2023-02-24T13:21:09.333Z,19.20
2023-02-24T13:23:42.108Z,18.90
2023-02-24T13:26:10.598Z,19.50
2023-02-24T13:28:38.708Z,21.40
2023-02-24T13:31:11.049Z,19.10
2023-02-24T13:33:44.100Z,21.00
2023-02-24T13:36:17.257Z,20.70
2023-02-24T13:38:47.776Z,17.70
2023-02-24T13:41:27.511Z,21.00
2023-02-24T13:44:01.759Z,21.20
2023-02-24T13:47:20.616Z,20.00
2023-02-24T13:50:00.405Z,19.30
2023-02-24T13:52:37.616Z,20.40
2023-02-24T13:55:39.811Z,20.00
2023-02-24T13:58:37.193Z,19.90
2023-02-24T14:01:14.215Z,20.70
2023-02-24T14:03:46.872Z,19.10
2023-02-24T14:06:26.478Z,22.00
2023-02-24T14:09:01.709Z,20.90
2023-02-24T14:11:35.008Z,19.50
2023-02-24T14:14:03.913Z,19.20
2023-02-24T14:16:41.525Z,19.00
2023-02-24T14:19:16.303Z,19.10
2023-02-24T14:22:02.421Z,20.80
2023-02-24T14:24:30.285Z,19.70
2023-02-24T14:26:59.714Z,20.90
2023-02-24T14:29:32.194Z,21.20
2023-02-24T14:32:01.318Z,21.00
2023-02-24T14:34:31.592Z,21.10
2023-02-24T14:37:03.769Z,20.80
2023-02-24T14:39:34.418Z,22.70
2023-02-24T14:42:13.061Z,20.70
2023-02-24T14:44:50.016Z,23.10
2023-02-24T14:47:20.769Z,22.40
2023-02-24T14:50:02.049Z,21.20
2023-02-24T14:52:39.687Z,23.90
2023-02-24T14:55:18.589Z,22.30
2023-02-24T14:57:58.207Z,23.30
2023-02-24T15:00:35.563Z,24.70
2023-02-24T15:03:16.945Z,21.20
2023-02-24T15:05:49.207Z,24.60
2023-02-24T15:08:41.312Z,23.70
2023-02-24T15:11:18.303Z,25.40
2023-02-24T15:13:52.973Z,25.40
2023-02-24T15:16:29.768Z,28.40
2023-02-24T15:19:01.536Z,27.20
2023-02-24T15:21:39.040Z,27.60
2023-02-24T15:24:27.818Z,27.00
2023-02-24T15:27:17.709Z,26.60
2023-02-24T15:29:58.279Z,28.10
2023-02-24T15:32:28.726Z,24.60
2023-02-24T15:34:57.301Z,26.10
2023-02-24T15:37:45.173Z,27.90
2023-02-24T15:40:20.746Z,28.10
2023-02-24T15:42:55.465Z,27.90
2023-02-24T15:45:33.630Z,28.00
2023-02-24T15:48:04.532Z,32.00
2023-02-24T15:50:32.462Z,29.40
2023-02-24T15:53:04.400Z,30.60
2023-02-24T15:55:33.076Z,30.10
2023-02-24T15:58:04.065Z,29.30
2023-02-24T16:00:32.437Z,34.10
2023-02-24T16:03:00.263Z,33.70
2023-02-24T16:05:28.057Z,32.20
2023-02-24T16:07:55.832Z,38.10
2023-02-24T16:10:27.119Z,34.40
2023-02-24T16:13:00.528Z,37.40
2023-02-24T16:18:02.290Z,34.00
2023-02-24T16:20:31.825Z,31.10
2023-02-24T16:23:02.528Z,33.10
2023-02-24T16:25:36.322Z,32.10
2023-02-24T16:30:31.829Z,36.20
2023-02-24T16:33:01.633Z,34.20
2023-02-24T16:35:29.725Z,40.00
2023-02-24T16:37:57.474Z,35.10
2023-02-24T16:40:30.935Z,39.70
2023-02-24T16:42:58.750Z,35.50
2023-02-24T16:45:29.630Z,30.40
2023-02-24T16:48:02.490Z,33.00
2023-02-24T16:50:40.582Z,29.60
2023-02-24T16:53:16.212Z,33.00
2023-02-24T16:55:44.002Z,41.00
2023-02-24T16:58:12.548Z,33.30
2023-02-24T17:00:41.883Z,36.10
2023-02-24T17:03:33.923Z,34.90
2023-02-24T17:06:01.866Z,34.60
2023-02-24T17:08:29.728Z,30.40
2023-02-24T17:10:57.574Z,32.20
2023-02-24T17:13:25.341Z,31.00
2023-02-24T17:15:57.361Z,33.10
2023-02-24T17:18:25.736Z,31.60
2023-02-24T17:20:53.746Z,31.50
2023-02-24T17:23:22.147Z,33.90
2023-02-24T17:25:53.889Z,32.20
2023-02-24T17:28:21.884Z,29.30
2023-02-24T17:30:49.884Z,33.40
2023-02-24T17:33:17.799Z,35.40
2023-02-24T17:35:49.383Z,36.80
2023-02-24T17:38:20.168Z,34.30
2023-02-24T17:40:48.208Z,35.30
2023-02-24T17:43:16.165Z,34.30
2023-02-24T17:45:46.356Z,32.90
2023-02-24T17:48:15.530Z,33.20
2023-02-24T17:50:45.297Z,33.30
2023-02-24T17:53:13.322Z,32.00
2023-02-24T17:55:55.888Z,32.70
2023-02-24T17:58:29.353Z,31.20
2023-02-24T18:00:57.296Z,31.50
2023-02-24T18:03:25.211Z,33.30
2023-02-24T18:06:13.092Z,32.00
2023-02-24T18:08:41.284Z,30.10
2023-02-24T18:11:13.931Z,29.00
2023-02-24T18:13:41.701Z,33.40
2023-02-24T18:16:11.100Z,30.80
2023-02-24T18:18:39.794Z,32.50
2023-02-24T18:21:08.748Z,33.10
2023-02-24T18:23:40.177Z,34.30
2023-02-24T18:26:10.081Z,28.50
2023-02-24T18:28:38.593Z,35.90
2023-02-24T18:31:18.640Z,34.00
2023-02-24T18:33:46.895Z,31.10
2023-02-24T18:36:15.483Z,32.40
2023-02-24T18:38:43.508Z,33.70
2023-02-24T18:41:19.399Z,27.80
2023-02-24T18:43:49.556Z,28.60
2023-02-24T18:46:18.706Z,30.90
2023-02-24T18:48:47.493Z,33.00
2023-02-24T18:51:18.789Z,31.90
2023-02-24T18:53:47.093Z,32.70
2023-02-24T18:56:17.007Z,30.50
2023-02-24T18:58:46.057Z,32.80
2023-02-24T19:01:20.564Z,29.40
2023-02-24T19:03:51.132Z,29.30
2023-02-24T19:06:20.802Z,30.50
2023-02-24T19:08:54.854Z,29.90
2023-02-24T19:11:22.647Z,31.90
2023-02-24T19:13:50.455Z,30.60
2023-02-24T19:16:18.843Z,31.80
2023-02-24T19:18:51.373Z,31.20
2023-02-24T19:21:19.496Z,31.90
2023-02-24T19:23:47.323Z,31.50
2023-02-24T19:26:22.145Z,30.80
2023-02-24T19:28:50.620Z,27.90
2023-02-24T19:31:23.213Z,29.40
2023-02-24T19:33:56.027Z,29.00
2023-02-24T19:36:24.748Z,28.30
2023-02-24T19:38:53.983Z,31.00
2023-02-24T19:41:21.894Z,27.00
2023-02-24T19:43:50.023Z,27.50
2023-02-24T19:46:19.098Z,30.80
2023-02-24T19:48:47.277Z,28.70
2023-02-24T19:51:22.639Z,28.10
2023-02-24T19:53:55.987Z,28.80
2023-02-24T19:56:26.127Z,26.30
2023-02-24T19:58:59.047Z,32.50
2023-02-24T20:01:28.690Z,31.60
2023-02-24T20:04:01.812Z,31.10
2023-02-24T20:06:33.075Z,28.70
2023-02-24T20:09:02.972Z,29.40
2023-02-24T20:11:34.702Z,30.20
2023-02-24T20:14:02.972Z,29.50
2023-02-24T20:16:34.626Z,32.50
2023-02-24T20:19:03.586Z,31.10
2023-02-24T20:21:32.203Z,29.70
2023-02-24T20:24:01.497Z,31.60
2023-02-24T20:26:30.979Z,33.70
2023-02-24T20:29:00.587Z,33.80
2023-02-24T20:31:29.081Z,31.90
2023-02-24T20:33:57.778Z,32.00
2023-02-24T20:36:28.220Z,32.80
2023-02-24T20:38:58.582Z,30.40
2023-02-24T20:41:27.449Z,34.70
2023-02-24T20:43:55.888Z,33.20
2023-02-24T20:46:29.953Z,33.80
2023-02-24T20:49:04.085Z,33.00
2023-02-24T20:51:34.782Z,31.30
2023-02-24T20:54:03.768Z,30.70
2023-02-24T20:56:36.508Z,29.50
2023-02-24T20:59:12.581Z,30.90
2023-02-24T21:01:41.193Z,35.80
2023-02-24T21:04:09.051Z,31.30
2023-02-24T21:06:37.484Z,30.80
2023-02-24T21:09:05.713Z,33.90
2023-02-24T21:11:34.423Z,35.30
2023-02-24T21:14:02.884Z,36.30
2023-02-24T21:16:30.605Z,35.80
2023-02-24T21:18:58.873Z,34.60
2023-02-24T21:21:26.751Z,33.20
2023-02-24T21:23:55.312Z,35.40
2023-02-24T21:26:26.860Z,35.00
2023-02-24T21:28:59.538Z,35.20
2023-02-24T21:31:28.072Z,36.10
2023-02-24T21:33:56.440Z,34.00
2023-02-24T21:36:26.188Z,36.80
2023-02-24T21:38:54.946Z,39.00
2023-02-24T21:41:23.802Z,38.90
2023-02-24T21:43:56.935Z,41.10
2023-02-24T21:46:28.263Z,38.70
2023-02-24T21:49:00.389Z,36.50
2023-02-24T21:51:29.395Z,44.80
2023-02-24T21:53:58.088Z,45.90
2023-02-24T21:56:29.099Z,45.90
2023-02-24T21:59:00.983Z,40.70
2023-02-24T22:01:38.160Z,47.60
2023-02-24T22:04:10.095Z,45.70
2023-02-24T22:06:39.190Z,48.30
2023-02-24T22:09:09.383Z,48.10
2023-02-24T22:11:41.398Z,44.30
2023-02-24T22:14:11.908Z,45.90
2023-02-24T22:16:40.353Z,46.90
2023-02-24T22:19:08.469Z,46.70
2023-02-24T22:21:36.588Z,46.00
2023-02-24T22:24:04.676Z,44.80
2023-02-24T22:26:33.562Z,49.10
2023-02-24T22:29:02.473Z,46.00
2023-02-24T22:31:32.490Z,49.00
2023-02-24T22:34:01.250Z,51.00
2023-02-24T22:36:33.611Z,51.00
2023-02-24T22:39:02.520Z,51.10
2023-02-24T22:41:33.115Z,46.20
2023-02-24T22:44:02.768Z,52.30
2023-02-24T22:46:33.361Z,42.10
2023-02-24T22:49:01.295Z,50.00
2023-02-24T22:51:29.714Z,50.40
2023-02-24T22:53:57.489Z,48.80
2023-02-24T22:56:29.055Z,50.50
2023-02-24T22:58:58.090Z,50.60
2023-02-24T23:01:28.981Z,50.50
2023-02-24T23:04:00.047Z,52.10
2023-02-24T23:06:29.433Z,48.40
2023-02-24T23:08:59.787Z,50.40
2023-02-24T23:11:33.200Z,44.40
2023-02-24T23:14:04.178Z,47.40
2023-02-24T23:16:34.111Z,50.60
2023-02-24T23:19:06.363Z,49.90
2023-02-24T23:21:41.007Z,48.40
2023-02-24T23:24:11.061Z,50.90
2023-02-24T23:26:45.275Z,50.00
2023-02-24T23:29:17.296Z,52.10
2023-02-24T23:31:45.824Z,49.60
2023-02-24T23:34:14.905Z,51.30
2023-02-24T23:36:44.780Z,49.00
2023-02-24T23:39:15.781Z,46.80
2023-02-24T23:41:44.286Z,50.60
2023-02-24T23:44:12.648Z,49.10
2023-02-24T23:46:41.801Z,45.80
2023-02-24T23:49:09.771Z,50.70
2023-02-24T23:51:48.162Z,49.20
2023-02-24T23:54:18.253Z,47.60
2023-02-24T23:56:46.987Z,51.70
2023-02-24T23:59:15.361Z,50.60
